createdAt,value
2018-07-22T00:00:43.565Z,75.78125
2018-07-22T00:01:59.473Z,76.080322
2018-07-22T00:03:15.396Z,76.782227
2018-07-22T00:04:31.342Z,76.782227
2018-07-22T00:05:47.238Z,76.782227
2018-07-22T00:07:03.162Z,76.379395
2018-07-22T00:08:19.046Z,76.080322
2018-07-22T00:09:34.948Z,75.640869
2018-07-22T00:10:50.837Z,75.640869
2018-07-22T00:12:06.766Z,75.341797
2018-07-22T00:13:22.679Z,75.640869
2018-07-22T00:14:38.565Z,76.245117
2018-07-22T00:15:54.437Z,76.043701
2018-07-22T00:17:10.309Z,76.147461
2018-07-22T00:18:26.238Z,76.379395
2018-07-22T00:19:42.126Z,76.483154
2018-07-22T00:20:58.031Z,76.080322
2018-07-22T00:22:13.931Z,75.640869
2018-07-22T00:23:29.855Z,75.244141
2018-07-22T00:24:45.768Z,75.445557
2018-07-22T00:26:01.698Z,75.543213
2018-07-22T00:27:17.564Z,75.982666
2018-07-22T00:28:33.470Z,75.744629
2018-07-22T00:29:49.398Z,75.842285
2018-07-22T00:31:05.318Z,75.744629
2018-07-22T00:32:21.200Z,75.946045
2018-07-22T00:33:37.131Z,75.842285
2018-07-22T00:34:53.041Z,75.042725
2018-07-22T00:36:08.979Z,75.244141
2018-07-22T00:37:24.884Z,75.744629
2018-07-22T00:38:40.804Z,75.744629
2018-07-22T00:39:56.752Z,76.245117
2018-07-22T00:41:12.643Z,75.640869
2018-07-22T00:42:28.547Z,75.744629
2018-07-22T00:43:44.447Z,76.043701
2018-07-22T00:45:00.337Z,75.946045
2018-07-22T00:46:16.203Z,75.640869
2018-07-22T00:47:32.096Z,76.147461
2018-07-22T00:48:47.969Z,76.281738
2018-07-22T00:50:03.957Z,76.379395
2018-07-22T00:51:19.858Z,76.177979
2018-07-22T00:52:35.802Z,75.744629
2018-07-22T00:53:51.690Z,75.543213
2018-07-22T00:55:07.630Z,75.842285
2018-07-22T00:56:23.503Z,75.744629
2018-07-22T00:57:39.421Z,74.938965
2018-07-22T00:58:55.328Z,73.535156
2018-07-22T01:00:11.252Z,73.33374
2018-07-22T01:01:27.142Z,73.4375
2018-07-22T01:02:43.082Z,72.833252
2018-07-22T01:03:59.023Z,73.132324
2018-07-22T01:05:14.944Z,72.937012
2018-07-22T01:06:30.926Z,72.094727
2018-07-22T01:07:46.752Z,71.09375
2018-07-22T01:09:02.670Z,70.727539
2018-07-22T01:10:18.589Z,71.130371
2018-07-22T01:11:34.478Z,70.526123
2018-07-22T01:12:50.376Z,69.824219
2018-07-22T01:14:06.294Z,70.025635
2018-07-22T01:15:22.235Z,70.324707
2018-07-22T01:16:38.143Z,70.825195
2018-07-22T01:17:54.040Z,70.324707
2018-07-22T01:19:10.007Z,70.825195
2018-07-22T01:20:25.911Z,71.130371
2018-07-22T01:21:41.796Z,71.130371
2018-07-22T01:22:57.704Z,70.928955
2018-07-22T01:24:13.609Z,70.294189
2018-07-22T01:25:29.522Z,70.495605
2018-07-22T01:26:45.484Z,70.294189
2018-07-22T01:28:01.438Z,70.19043
2018-07-22T01:29:17.371Z,70.526123
2018-07-22T01:30:33.251Z,70.324707
2018-07-22T01:31:49.158Z,70.123291
2018-07-22T01:33:05.051Z,70.526123
2018-07-22T01:34:20.989Z,70.294189
2018-07-22T01:35:36.912Z,70.629883
2018-07-22T01:36:52.808Z,70.629883
2018-07-22T01:38:08.725Z,71.026611
2018-07-22T01:39:24.657Z,70.892334
2018-07-22T01:40:40.601Z,71.832275
2018-07-22T01:41:56.490Z,72.735596
2018-07-22T01:43:12.400Z,73.034668
2018-07-22T01:44:28.287Z,72.833252
2018-07-22T01:45:44.209Z,72.698975
2018-07-22T01:47:00.095Z,73.132324
2018-07-22T01:48:16.034Z,73.33374
2018-07-22T01:49:31.928Z,72.937012
2018-07-22T01:50:47.825Z,72.53418
2018-07-22T01:52:03.737Z,72.631836
2018-07-22T01:53:19.680Z,72.601318
2018-07-22T01:54:35.564Z,72.796631
2018-07-22T01:55:51.432Z,73.132324
2018-07-22T01:57:07.317Z,73.132324
2018-07-22T01:58:23.282Z,73.101807
2018-07-22T01:59:39.206Z,72.796631
2018-07-22T02:00:55.133Z,72.698975
2018-07-22T02:02:11.039Z,72.497559
2018-07-22T02:03:26.959Z,72.796631
2018-07-22T02:04:42.888Z,73.132324
2018-07-22T02:05:58.804Z,73.535156
2018-07-22T02:07:14.677Z,74.035645
2018-07-22T02:08:30.566Z,73.638916
2018-07-22T02:09:46.500Z,73.638916
2018-07-22T02:11:02.390Z,73.638916
2018-07-22T02:12:18.331Z,73.535156
2018-07-22T02:13:35.201Z,73.736572
2018-07-22T02:14:51.132Z,73.498535
2018-07-22T02:16:07.040Z,73.303223
2018-07-22T02:17:22.937Z,74.035645
2018-07-22T02:18:38.835Z,74.237061
2018-07-22T02:19:54.774Z,74.371338
2018-07-22T02:21:10.738Z,74.237061
2018-07-22T02:22:26.637Z,74.035645
2018-07-22T02:23:42.513Z,73.937988
2018-07-22T02:24:58.367Z,74.237061
2018-07-22T02:26:14.246Z,74.34082
2018-07-22T02:27:30.121Z,74.139404
2018-07-22T02:28:45.961Z,74.237061
2018-07-22T02:30:01.968Z,74.035645
2018-07-22T02:31:17.875Z,74.34082
2018-07-22T02:32:33.777Z,74.438477
2018-07-22T02:33:49.667Z,74.34082
2018-07-22T02:35:05.562Z,74.237061
2018-07-22T02:36:21.452Z,74.139404
2018-07-22T02:37:37.413Z,74.139404
2018-07-22T02:38:53.301Z,73.535156
2018-07-22T02:40:09.187Z,73.638916
2018-07-22T02:41:25.060Z,73.638916
2018-07-22T02:42:40.995Z,73.33374
2018-07-22T02:43:56.891Z,73.4375
2018-07-22T02:45:12.804Z,73.4375
2018-07-22T02:46:28.747Z,73.535156
2018-07-22T02:47:44.680Z,74.072266
2018-07-22T02:49:00.545Z,73.840332
2018-07-22T02:50:16.442Z,73.974609
2018-07-22T02:51:32.418Z,74.371338
2018-07-22T02:52:48.388Z,73.87085
2018-07-22T02:54:04.322Z,73.87085
2018-07-22T02:55:20.207Z,73.87085
2018-07-22T02:56:36.093Z,74.176025
2018-07-22T02:57:51.991Z,73.87085
2018-07-22T02:59:07.906Z,73.87085
2018-07-22T03:00:23.756Z,73.669434
2018-07-22T03:01:39.653Z,73.168945
2018-07-22T03:02:55.567Z,73.168945
2018-07-22T03:04:11.457Z,73.168945
2018-07-22T03:05:27.354Z,72.967529
2018-07-22T03:06:43.272Z,72.766113
2018-07-22T03:08:00.076Z,72.766113
2018-07-22T03:09:15.967Z,73.071289
2018-07-22T03:10:31.863Z,72.668457
2018-07-22T03:11:47.788Z,72.265625
2018-07-22T03:13:03.710Z,71.661377
2018-07-22T03:14:19.645Z,71.661377
2018-07-22T03:15:35.514Z,71.264648
2018-07-22T03:16:51.402Z,70.959473
2018-07-22T03:18:07.306Z,71.160889
2018-07-22T03:19:23.214Z,71.398926
2018-07-22T03:20:39.120Z,71.795654
2018-07-22T03:21:54.984Z,71.765137
2018-07-22T03:23:10.904Z,71.697998
2018-07-22T03:24:26.801Z,71.795654
2018-07-22T03:25:42.701Z,71.765137
2018-07-22T03:26:58.598Z,72.302246
2018-07-22T03:28:14.490Z,72.399902
2018-07-22T03:29:30.406Z,72.369385
2018-07-22T03:30:46.309Z,72.167969
2018-07-22T03:32:02.213Z,72.265625
2018-07-22T03:33:18.103Z,72.369385
2018-07-22T03:34:33.997Z,72.668457
2018-07-22T03:35:49.876Z,72.467041
2018-07-22T03:37:05.775Z,72.467041
2018-07-22T03:38:21.685Z,72.668457
2018-07-22T03:39:37.661Z,72.467041
2018-07-22T03:40:53.547Z,72.967529
2018-07-22T03:42:09.468Z,72.869873
2018-07-22T03:43:25.361Z,72.869873
2018-07-22T03:44:41.272Z,72.869873
2018-07-22T03:45:57.164Z,72.967529
2018-07-22T03:47:13.097Z,72.869873
2018-07-22T03:48:29.041Z,72.564697
2018-07-22T03:49:44.968Z,72.967529
2018-07-22T03:51:00.850Z,73.608398
2018-07-22T03:52:17.776Z,73.406982
2018-07-22T03:53:33.637Z,73.071289
2018-07-22T03:54:49.520Z,72.967529
2018-07-22T03:56:05.432Z,72.766113
2018-07-22T03:57:21.391Z,72.869873
2018-07-22T03:58:37.272Z,73.071289
2018-07-22T03:59:53.148Z,72.766113
2018-07-22T04:01:09.035Z,72.564697
2018-07-22T04:02:24.985Z,72.668457
2018-07-22T04:03:40.874Z,72.564697
2018-07-22T04:04:56.776Z,72.564697
2018-07-22T04:06:12.748Z,73.205566
2018-07-22T04:07:28.690Z,73.406982
2018-07-22T04:08:44.643Z,73.406982
2018-07-22T04:10:00.541Z,73.504639
2018-07-22T04:11:16.498Z,73.706055
2018-07-22T04:12:32.462Z,73.706055
2018-07-22T04:13:48.337Z,73.907471
2018-07-22T04:15:04.245Z,73.809814
2018-07-22T04:16:20.119Z,73.907471
2018-07-22T04:17:36.012Z,73.907471
2018-07-22T04:18:51.882Z,73.809814
2018-07-22T04:20:07.835Z,73.907471
2018-07-22T04:21:23.778Z,73.907471
2018-07-22T04:22:39.661Z,73.907471
2018-07-22T04:23:55.557Z,74.005127
2018-07-22T04:25:11.462Z,73.706055
2018-07-22T04:26:27.376Z,73.706055
2018-07-22T04:27:43.265Z,73.571777
2018-07-22T04:28:59.196Z,73.370361
2018-07-22T04:30:15.099Z,73.468018
2018-07-22T04:31:31.012Z,73.468018
2018-07-22T04:32:46.919Z,73.468018
2018-07-22T04:34:02.796Z,73.468018
2018-07-22T04:35:18.699Z,73.669434
2018-07-22T04:36:34.601Z,73.669434
2018-07-22T04:37:50.645Z,73.773193
2018-07-22T04:39:06.537Z,73.468018
2018-07-22T04:40:22.415Z,73.87085
2018-07-22T04:41:38.473Z,73.974609
2018-07-22T04:42:54.412Z,74.176025
2018-07-22T04:44:10.319Z,74.407959
2018-07-22T04:45:26.252Z,74.713135
2018-07-22T04:46:42.128Z,74.713135
2018-07-22T04:47:58.101Z,74.371338
2018-07-22T04:49:13.997Z,74.371338
2018-07-22T04:50:29.888Z,74.475098
2018-07-22T04:51:45.867Z,74.273682
2018-07-22T04:53:01.776Z,73.974609
2018-07-22T04:54:17.686Z,73.638916
2018-07-22T04:55:33.584Z,73.87085
2018-07-22T04:56:49.480Z,73.840332
2018-07-22T04:58:05.398Z,73.840332
2018-07-22T04:59:21.332Z,73.736572
2018-07-22T05:00:37.221Z,73.736572
2018-07-22T05:01:53.103Z,73.638916
2018-07-22T05:03:09.024Z,73.736572
2018-07-22T05:04:24.913Z,73.736572
2018-07-22T05:05:40.797Z,73.937988
2018-07-22T05:06:56.701Z,74.139404
2018-07-22T05:08:12.619Z,73.937988
2018-07-22T05:09:28.516Z,74.035645
2018-07-22T05:10:44.430Z,73.937988
2018-07-22T05:12:00.299Z,73.937988
2018-07-22T05:13:16.226Z,73.535156
2018-07-22T05:14:32.116Z,73.840332
2018-07-22T05:15:48.031Z,73.638916
2018-07-22T05:17:03.952Z,73.638916
2018-07-22T05:18:19.853Z,73.937988
2018-07-22T05:19:35.829Z,73.937988
2018-07-22T05:20:51.706Z,73.638916
2018-07-22T05:22:07.583Z,73.498535
2018-07-22T05:23:23.523Z,73.303223
2018-07-22T05:24:39.429Z,73.199463
2018-07-22T05:25:55.321Z,72.796631
2018-07-22T05:27:11.206Z,73.101807
2018-07-22T05:28:27.271Z,73.699951
2018-07-22T05:29:43.121Z,73.736572
2018-07-22T05:30:59.075Z,73.498535
2018-07-22T05:32:14.948Z,73.535156
2018-07-22T05:33:30.850Z,73.199463
2018-07-22T05:34:46.763Z,72.900391
2018-07-22T05:36:02.664Z,72.900391
2018-07-22T05:37:18.536Z,72.698975
2018-07-22T05:38:34.479Z,72.363281
2018-07-22T05:39:50.439Z,72.265625
2018-07-22T05:41:06.382Z,72.698975
2018-07-22T05:42:22.308Z,72.265625
2018-07-22T05:43:38.251Z,72.265625
2018-07-22T05:44:54.231Z,72.399902
2018-07-22T05:46:10.142Z,72.698975
2018-07-22T05:47:26.116Z,72.998047
2018-07-22T05:48:42.024Z,72.601318
2018-07-22T05:49:57.974Z,72.467041
2018-07-22T05:51:13.891Z,72.796631
2018-07-22T05:52:29.788Z,72.766113
2018-07-22T05:53:45.725Z,72.161865
2018-07-22T05:55:01.625Z,71.960449
2018-07-22T05:56:17.507Z,72.265625
2018-07-22T05:57:33.413Z,72.064209
2018-07-22T05:58:49.355Z,71.765137
2018-07-22T06:00:05.324Z,71.862793
2018-07-22T06:01:21.211Z,71.5271
2018-07-22T06:02:37.280Z,72.064209
2018-07-22T06:03:53.209Z,72.900391
2018-07-22T06:05:09.175Z,72.900391
2018-07-22T06:06:25.122Z,73.199463
2018-07-22T06:07:41.017Z,73.199463
2018-07-22T06:08:57.972Z,73.101807
2018-07-22T06:10:13.957Z,72.900391
2018-07-22T06:11:29.939Z,72.564697
2018-07-22T06:12:45.906Z,72.265625
2018-07-22T06:14:01.784Z,72.161865
2018-07-22T06:15:17.666Z,72.064209
2018-07-22T06:16:33.629Z,72.161865
2018-07-22T06:17:49.522Z,72.161865
2018-07-22T06:19:05.641Z,72.161865
2018-07-22T06:20:21.681Z,72.601318
2018-07-22T06:21:37.580Z,72.698975
2018-07-22T06:22:53.553Z,72.467041
2018-07-22T06:24:09.449Z,72.265625
2018-07-22T06:25:25.386Z,72.064209
2018-07-22T06:26:41.310Z,72.131348
2018-07-22T06:27:57.239Z,72.229004
2018-07-22T06:29:13.167Z,71.929932
2018-07-22T06:30:29.105Z,71.392822
2018-07-22T06:31:45.138Z,72.131348
2018-07-22T06:33:01.101Z,72.229004
2018-07-22T06:34:17.015Z,72.662354
2018-07-22T06:35:32.916Z,72.43042
2018-07-22T06:36:48.805Z,71.862793
2018-07-22T06:38:04.707Z,72.094727
2018-07-22T06:39:20.585Z,72.296143
2018-07-22T06:40:36.474Z,71.960449
2018-07-22T06:41:52.437Z,71.661377
2018-07-22T06:43:08.418Z,71.258545
2018-07-22T06:44:24.350Z,71.124268
2018-07-22T06:45:40.296Z,71.026611
2018-07-22T06:46:56.278Z,70.928955
2018-07-22T06:48:12.270Z,70.623779
2018-07-22T06:49:28.225Z,70.526123
2018-07-22T06:50:44.142Z,71.124268
2018-07-22T06:52:00.108Z,70.526123
2018-07-22T06:53:16.037Z,70.227051
2018-07-22T06:54:31.996Z,70.623779
2018-07-22T06:55:47.930Z,70.227051
2018-07-22T06:57:03.885Z,69.824219
2018-07-22T06:58:19.784Z,70.227051
2018-07-22T06:59:35.763Z,70.159912
2018-07-22T07:00:51.775Z,71.392822
2018-07-22T07:02:07.712Z,72.235107
2018-07-22T07:03:23.624Z,72.094727
2018-07-22T07:04:39.588Z,72.53418
2018-07-22T07:05:55.553Z,72.235107
2018-07-22T07:07:11.555Z,71.697998
2018-07-22T07:08:28.564Z,71.429443
2018-07-22T07:09:44.672Z,71.728516
2018-07-22T07:11:00.872Z,71.295166
2018-07-22T07:12:16.842Z,71.295166
2018-07-22T07:13:32.778Z,71.19751
2018-07-22T07:14:48.725Z,71.09375
2018-07-22T07:16:04.595Z,70.361328
2018-07-22T07:17:20.565Z,69.659424
2018-07-22T07:18:36.499Z,69.75708
2018-07-22T07:19:52.493Z,69.421387
2018-07-22T07:21:08.431Z,69.122314
2018-07-22T07:22:24.386Z,68.688965
2018-07-22T07:23:40.330Z,68.591309
2018-07-22T07:24:56.218Z,68.688965
2018-07-22T07:26:12.437Z,69.122314
2018-07-22T07:27:28.322Z,69.091797
2018-07-22T07:28:45.246Z,69.421387
2018-07-22T07:30:01.143Z,70.159912
2018-07-22T07:31:17.071Z,69.622803
2018-07-22T07:32:33.061Z,69.488525
2018-07-22T07:33:49.000Z,69.189453
2018-07-22T07:35:04.932Z,68.890381
2018-07-22T07:36:20.928Z,69.024658
2018-07-22T07:37:36.897Z,69.226074
2018-07-22T07:38:52.881Z,69.622803
2018-07-22T07:40:08.823Z,69.525146
2018-07-22T07:41:24.718Z,69.622803
2018-07-22T07:42:40.684Z,69.189453
2018-07-22T07:43:56.668Z,69.091797
2018-07-22T07:45:12.588Z,68.988037
2018-07-22T07:46:28.521Z,68.554688
2018-07-22T07:47:44.473Z,68.554688
2018-07-22T07:49:00.391Z,68.554688
2018-07-22T07:50:16.922Z,68.554688
2018-07-22T07:51:33.148Z,68.890381
2018-07-22T07:52:49.094Z,69.555664
2018-07-22T07:54:05.014Z,69.458008
2018-07-22T07:55:20.947Z,69.592285
2018-07-22T07:56:36.851Z,70.428467
2018-07-22T07:57:52.775Z,70.324707
2018-07-22T07:59:09.243Z,70.19043
2018-07-22T08:00:26.630Z,70.495605
2018-07-22T08:01:42.538Z,70.294189
2018-07-22T08:02:58.448Z,71.228027
2018-07-22T08:04:14.395Z,71.429443
2018-07-22T08:05:30.354Z,70.690918
2018-07-22T08:06:46.284Z,70.593262
2018-07-22T08:08:02.191Z,70.690918
2018-07-22T08:09:18.142Z,70.593262
2018-07-22T08:10:34.130Z,69.86084
2018-07-22T08:11:50.159Z,70.294189
2018-07-22T08:13:06.200Z,70.593262
2018-07-22T08:14:22.214Z,70.690918
2018-07-22T08:15:38.172Z,71.630859
2018-07-22T08:16:54.177Z,71.5271
2018-07-22T08:18:10.136Z,72.363281
2018-07-22T08:19:26.136Z,72.265625
2018-07-22T08:20:42.096Z,72.161865
2018-07-22T08:21:58.199Z,71.728516
2018-07-22T08:23:14.269Z,71.5271
2018-07-22T08:24:30.234Z,71.325684
2018-07-22T08:25:46.582Z,71.09375
2018-07-22T08:27:02.531Z,71.295166
2018-07-22T08:28:18.528Z,71.09375
2018-07-22T08:29:34.733Z,71.295166
2018-07-22T08:30:50.812Z,71.594238
2018-07-22T08:32:06.724Z,71.691895
2018-07-22T08:33:22.671Z,71.09375
2018-07-22T08:34:38.661Z,71.630859
2018-07-22T08:35:54.770Z,72.027588
2018-07-22T08:37:10.704Z,71.594238
2018-07-22T08:38:26.716Z,71.09375
2018-07-22T08:39:42.659Z,70.861816
2018-07-22T08:40:58.630Z,70.892334
2018-07-22T08:42:14.515Z,70.6604
2018-07-22T08:43:29.489Z,70.556641
2018-07-22T08:44:45.488Z,70.959473
2018-07-22T08:46:01.415Z,71.057129
2018-07-22T08:47:17.316Z,71.09375
2018-07-22T08:48:33.352Z,71.191406
2018-07-22T08:49:49.591Z,71.057129
2018-07-22T08:51:05.575Z,70.758057
2018-07-22T08:52:21.507Z,70.6604
2018-07-22T08:53:37.396Z,70.6604
2018-07-22T08:54:53.319Z,70.794678
2018-07-22T08:56:09.265Z,70.794678
2018-07-22T08:57:25.292Z,71.191406
2018-07-22T08:58:41.259Z,71.295166
2018-07-22T08:59:57.270Z,71.191406
2018-07-22T09:02:53.689Z,71.496582
2018-07-22T09:04:09.675Z,71.594238
2018-07-22T09:05:25.625Z,71.594238
2018-07-22T09:06:41.548Z,71.594238
2018-07-22T09:07:57.482Z,71.691895
2018-07-22T09:09:13.408Z,71.691895
2018-07-22T09:10:29.390Z,71.691895
2018-07-22T09:11:45.483Z,71.893311
2018-07-22T09:13:01.743Z,71.893311
2018-07-22T09:14:17.778Z,71.893311
2018-07-22T09:15:33.793Z,71.594238
2018-07-22T09:16:49.889Z,71.496582
2018-07-22T09:18:05.870Z,71.295166
2018-07-22T09:19:21.771Z,71.392822
2018-07-22T09:20:37.841Z,71.99707
2018-07-22T09:21:53.794Z,71.795654
2018-07-22T09:23:09.724Z,71.795654
2018-07-22T09:24:25.750Z,71.795654
2018-07-22T09:25:41.706Z,71.496582
2018-07-22T09:26:57.688Z,71.191406
2018-07-22T09:28:13.643Z,71.392822
2018-07-22T09:29:29.547Z,71.795654
2018-07-22T09:30:45.523Z,71.893311
2018-07-22T09:32:01.591Z,71.795654
2018-07-22T09:33:17.633Z,71.392822
2018-07-22T09:34:33.632Z,71.258545
2018-07-22T09:35:49.783Z,71.594238
2018-07-22T09:37:05.774Z,71.496582
2018-07-22T09:38:21.790Z,71.09375
2018-07-22T09:39:38.150Z,71.594238
2018-07-22T09:40:54.439Z,71.496582
2018-07-22T09:42:10.508Z,71.691895
2018-07-22T09:43:26.527Z,71.795654
2018-07-22T09:44:42.480Z,71.392822
2018-07-22T09:45:58.433Z,70.996094
2018-07-22T09:47:14.484Z,70.996094
2018-07-22T09:48:30.520Z,71.496582
2018-07-22T09:49:47.011Z,71.795654
2018-07-22T09:51:02.970Z,72.094727
2018-07-22T09:52:18.962Z,71.795654
2018-07-22T09:53:35.061Z,71.893311
2018-07-22T09:54:50.954Z,71.661377
2018-07-22T09:56:06.950Z,71.496582
2018-07-22T09:57:22.923Z,71.160889
2018-07-22T09:58:39.125Z,71.795654
2018-07-22T09:59:54.993Z,71.99707
2018-07-22T10:01:10.994Z,71.99707
2018-07-22T10:02:26.988Z,71.459961
2018-07-22T10:03:42.950Z,71.258545
2018-07-22T10:04:58.917Z,71.362305
2018-07-22T10:06:14.886Z,71.691895
2018-07-22T10:07:30.840Z,71.862793
2018-07-22T10:08:47.010Z,71.661377
2018-07-22T10:10:03.005Z,71.759033
2018-07-22T10:11:19.041Z,71.893311
2018-07-22T10:12:35.043Z,71.960449
2018-07-22T10:13:51.066Z,72.058105
2018-07-22T10:15:07.023Z,71.862793
2018-07-22T10:16:22.990Z,71.759033
2018-07-22T10:17:38.978Z,71.362305
2018-07-22T10:18:54.975Z,71.057129
2018-07-22T10:20:10.981Z,71.258545
2018-07-22T10:23:07.514Z,70.825195
2018-07-22T10:24:23.525Z,70.623779
2018-07-22T10:27:20.336Z,69.592285
2018-07-22T10:28:36.440Z,69.390869
2018-07-22T10:29:52.348Z,68.762207
2018-07-22T10:31:08.320Z,68.560791
2018-07-22T10:32:24.295Z,67.962646
2018-07-22T10:33:40.292Z,68.157959
2018-07-22T10:34:56.262Z,67.889404
2018-07-22T10:36:12.206Z,67.694092
2018-07-22T10:37:28.183Z,66.96167
2018-07-22T10:38:44.154Z,67.163086
2018-07-22T10:41:40.936Z,67.260742
2018-07-22T10:42:56.898Z,66.760254
2018-07-22T10:44:12.886Z,66.131592
2018-07-22T10:45:28.901Z,66.162109
2018-07-22T10:46:44.878Z,65.661621
2018-07-22T10:48:00.889Z,65.563965
2018-07-22T10:49:16.920Z,65.429688
2018-07-22T10:50:32.937Z,65.429688
2018-07-22T10:51:48.903Z,66.363525
2018-07-22T10:53:04.825Z,66.363525
2018-07-22T10:54:20.847Z,67.059326
2018-07-22T10:55:36.853Z,66.760254
2018-07-22T10:56:52.848Z,66.461182
2018-07-22T10:58:08.979Z,66.363525
2018-07-22T10:59:25.145Z,65.759277
2018-07-22T11:00:41.309Z,65.960693
2018-07-22T11:01:57.278Z,66.05835
2018-07-22T11:03:13.437Z,66.192627
2018-07-22T11:04:29.430Z,66.992188
2018-07-22T11:05:45.444Z,67.224121
2018-07-22T11:07:01.434Z,66.723633
2018-07-22T11:08:17.456Z,67.553711
2018-07-22T11:09:33.691Z,67.858887
2018-07-22T11:10:49.683Z,67.425537
2018-07-22T11:12:05.914Z,67.425537
2018-07-22T11:13:22.048Z,66.894531
2018-07-22T11:14:38.124Z,66.821289
2018-07-22T11:15:54.073Z,67.321777
2018-07-22T11:17:10.170Z,66.021729
2018-07-22T11:18:26.213Z,64.892578
2018-07-22T11:19:42.241Z,64.691162
2018-07-22T11:20:58.544Z,64.892578
2018-07-22T11:22:14.431Z,64.294434
2018-07-22T11:23:30.444Z,65.826416
2018-07-22T11:24:46.450Z,65.826416
2018-07-22T11:26:02.441Z,65.289307
2018-07-22T11:27:18.530Z,65.19165
2018-07-22T11:28:34.577Z,65.692139
2018-07-22T11:29:50.583Z,65.393066
2018-07-22T11:31:06.520Z,64.263916
2018-07-22T11:32:22.516Z,64.794922
2018-07-22T11:33:38.493Z,65.093994
2018-07-22T11:34:54.459Z,65.093994
2018-07-22T11:36:10.392Z,64.691162
2018-07-22T11:37:26.443Z,64.660645
2018-07-22T11:38:42.431Z,64.562988
2018-07-22T11:39:58.393Z,63.360596
2018-07-22T11:41:14.373Z,63.189697
2018-07-22T11:42:30.303Z,63.562012
2018-07-22T11:43:46.404Z,63.964844
2018-07-22T11:45:02.473Z,63.360596
2018-07-22T11:46:18.476Z,63.360596
2018-07-22T11:47:34.458Z,63.061523
2018-07-22T11:48:50.448Z,62.82959
2018-07-22T11:50:06.376Z,62.530518
2018-07-22T11:51:22.340Z,62.762451
2018-07-22T11:52:38.384Z,62.365723
2018-07-22T11:53:54.394Z,61.16333
2018-07-22T11:55:10.333Z,60.961914
2018-07-22T11:56:26.268Z,61.334229
2018-07-22T11:57:42.262Z,61.462402
2018-07-22T11:58:58.258Z,63.061523
2018-07-22T12:00:14.259Z,62.530518
2018-07-22T12:01:30.257Z,61.633301
2018-07-22T12:02:46.203Z,60.437012
2018-07-22T12:04:02.236Z,59.936523
2018-07-22T12:05:18.236Z,60.437012
2018-07-22T12:06:34.228Z,60.406494
2018-07-22T12:07:50.204Z,60.906982
2018-07-22T12:09:06.200Z,61.206055
2018-07-22T12:10:22.183Z,60.803223
2018-07-22T12:11:38.160Z,60.50415
2018-07-22T12:12:54.080Z,61.102295
2018-07-22T12:14:10.086Z,60.705566
2018-07-22T12:15:26.053Z,60.479736
2018-07-22T12:16:42.104Z,60.150146
2018-07-22T12:17:58.070Z,60.150146
2018-07-22T12:19:14.108Z,60.345459
2018-07-22T12:20:30.093Z,60.919189
2018-07-22T12:21:46.033Z,60.5896
2018-07-22T12:23:02.257Z,60.5896
2018-07-22T12:24:18.238Z,60.089111
2018-07-22T12:25:34.218Z,59.661865
2018-07-22T12:26:50.254Z,59.765625
2018-07-22T12:28:06.337Z,60.162354
2018-07-22T12:29:22.629Z,60.662842
2018-07-22T12:30:38.880Z,60.888672
2018-07-22T12:31:54.900Z,62.115479
2018-07-22T12:33:10.983Z,61.688232
2018-07-22T12:34:27.062Z,60.961914
2018-07-22T12:35:43.161Z,59.466553
2018-07-22T12:38:40.031Z,60.791016
2018-07-22T12:39:57.507Z,59.735107
2018-07-22T12:41:14.004Z,58.38623
2018-07-22T12:44:10.540Z,58.410645
2018-07-22T12:45:27.240Z,57.91626
2018-07-22T12:46:44.195Z,58.837891
2018-07-22T12:48:00.640Z,59.234619
2018-07-22T12:49:17.532Z,59.70459
2018-07-22T12:50:33.730Z,58.282471
2018-07-22T12:51:49.720Z,59.179688
2018-07-22T12:53:05.710Z,58.880615
2018-07-22T12:54:21.686Z,58.880615
2018-07-22T12:55:37.695Z,59.082031
2018-07-22T12:56:53.726Z,58.984375
2018-07-22T12:58:10.128Z,58.685303
2018-07-22T12:59:26.169Z,58.258057
2018-07-22T13:00:42.218Z,58.056641
2018-07-22T13:01:58.207Z,57.861328
2018-07-22T13:03:14.183Z,59.405518
2018-07-22T13:04:30.124Z,59.606934
2018-07-22T13:05:46.148Z,59.606934
2018-07-22T13:07:02.132Z,58.581543
2018-07-22T13:08:18.265Z,59.381104
2018-07-22T13:09:34.254Z,59.179688
2018-07-22T13:10:50.264Z,58.056641
2018-07-22T13:12:06.211Z,58.782959
2018-07-22T13:13:22.204Z,59.509277
2018-07-22T13:14:38.237Z,59.509277
2018-07-22T13:17:34.890Z,59.906006
2018-07-22T13:18:50.960Z,59.832764
2018-07-22T13:20:06.970Z,59.80835
2018-07-22T13:21:22.937Z,60.003662
2018-07-22T13:22:38.909Z,59.008789
2018-07-22T13:25:35.739Z,59.564209
2018-07-22T13:26:51.768Z,60.491943
2018-07-22T13:28:07.754Z,59.393311
2018-07-22T13:29:23.820Z,60.290527
2018-07-22T13:30:40.008Z,60.089111
2018-07-22T13:31:56.029Z,60.559082
2018-07-22T13:33:12.079Z,59.692383
2018-07-22T13:34:28.140Z,59.7229
2018-07-22T13:35:44.135Z,59.222412
2018-07-22T13:37:00.122Z,59.692383
2018-07-22T13:38:16.253Z,58.496094
2018-07-22T13:39:32.186Z,58.36792
2018-07-22T13:40:48.197Z,58.47168
2018-07-22T13:42:04.227Z,58.14209
2018-07-22T13:43:20.234Z,58.740234
2018-07-22T13:44:36.252Z,60.760498
2018-07-22T13:45:52.628Z,62.255859
2018-07-22T13:47:08.783Z,62.982178
2018-07-22T13:48:24.701Z,62.884521
2018-07-22T13:49:40.720Z,63.409424
2018-07-22T13:50:56.752Z,62.908936
2018-07-22T13:52:12.803Z,62.512207
2018-07-22T13:53:28.837Z,62.780762
2018-07-22T13:54:44.774Z,62.780762
2018-07-22T13:56:00.732Z,62.585449
2018-07-22T13:57:16.690Z,63.378906
2018-07-22T13:58:32.722Z,63.378906
2018-07-22T13:59:48.719Z,64.306641
2018-07-22T14:01:04.690Z,63.708496
2018-07-22T14:02:20.713Z,63.739014
2018-07-22T14:03:36.699Z,63.842773
2018-07-22T14:04:52.682Z,63.842773
2018-07-22T14:06:08.778Z,64.141846
2018-07-22T14:07:24.814Z,64.337158
2018-07-22T14:08:40.700Z,63.50708
2018-07-22T14:09:56.692Z,63.812256
2018-07-22T14:11:12.718Z,63.909912
2018-07-22T14:12:28.778Z,63.409424
2018-07-22T14:15:25.636Z,62.982178
2018-07-22T14:16:41.588Z,62.481689
2018-07-22T14:17:57.679Z,61.883545
2018-07-22T14:19:13.722Z,61.987305
2018-07-22T14:20:29.808Z,61.657715
2018-07-22T14:21:45.759Z,62.084961
2018-07-22T14:23:01.762Z,61.456299
2018-07-22T14:24:17.825Z,60.961914
2018-07-22T14:25:33.806Z,61.254883
2018-07-22T14:26:49.817Z,62.1521
2018-07-22T14:28:05.854Z,62.182617
2018-07-22T14:29:21.841Z,62.841797
2018-07-22T14:30:37.775Z,62.445068
2018-07-22T14:31:53.819Z,62.542725
2018-07-22T14:33:09.800Z,62.939453
2018-07-22T14:34:25.824Z,62.939453
2018-07-22T14:35:41.870Z,63.110352
2018-07-22T14:36:57.932Z,62.811279
2018-07-22T14:38:14.043Z,63.012695
2018-07-22T14:39:30.072Z,62.609863
2018-07-22T14:40:46.447Z,62.213135
2018-07-22T14:42:02.385Z,62.341309
2018-07-22T14:43:18.424Z,62.744141
2018-07-22T14:44:34.369Z,62.713623